createdAt,value
2018-12-17T00:00:01.513Z,0.60
2018-12-17T00:00:38.039Z,0.60
2018-12-17T00:01:14.606Z,0.60
2018-12-17T00:01:50.980Z,0.60
2018-12-17T00:02:27.980Z,0.60
2018-12-17T00:03:05.320Z,0.60
2018-12-17T00:03:41.404Z,0.60
2018-12-17T00:04:17.457Z,0.60
2018-12-17T00:04:53.542Z,0.60
2018-12-17T00:05:30.571Z,0.60
2018-12-17T00:06:07.399Z,0.60
2018-12-17T00:06:44.296Z,0.60
2018-12-17T00:07:20.777Z,0.60
2018-12-17T00:07:57.183Z,0.60
2018-12-17T00:08:33.314Z,0.60
2018-12-17T00:09:09.447Z,0.60
2018-12-17T00:09:45.926Z,0.60
2018-12-17T00:10:21.993Z,0.60
2018-12-17T00:10:59.343Z,0.60
2018-12-17T00:11:35.719Z,0.60
2018-12-17T00:12:16.526Z,0.60
2018-12-17T00:12:50.566Z,0.60
2018-12-17T00:13:26.575Z,0.50
2018-12-17T00:14:03.068Z,0.50
2018-12-17T00:14:39.107Z,0.50
2018-12-17T00:15:15.146Z,0.50
2018-12-17T00:15:51.623Z,0.50
2018-12-17T00:16:28.077Z,0.60
2018-12-17T00:17:05.250Z,0.60
2018-12-17T00:17:41.618Z,0.60
2018-12-17T00:18:18.055Z,0.60
2018-12-17T00:18:54.167Z,0.60
2018-12-17T00:19:30.271Z,0.60
2018-12-17T00:20:08.219Z,0.60
2018-12-17T00:20:44.728Z,0.60
2018-12-17T00:21:20.779Z,0.60
2018-12-17T00:21:56.815Z,0.60
2018-12-17T00:22:32.835Z,0.60
2018-12-17T00:23:08.907Z,0.60
2018-12-17T00:23:44.999Z,0.60
2018-12-17T00:24:21.095Z,0.60
2018-12-17T00:24:57.159Z,0.60
2018-12-17T00:25:33.471Z,0.60
2018-12-17T00:26:09.517Z,0.60
2018-12-17T00:26:45.652Z,0.60
2018-12-17T00:27:21.739Z,0.60
2018-12-17T00:27:57.777Z,0.60
2018-12-17T00:28:34.221Z,0.60
2018-12-17T00:29:10.279Z,0.50
2018-12-17T00:29:46.284Z,0.50
2018-12-17T00:30:22.709Z,0.50
2018-12-17T00:30:58.738Z,0.50
2018-12-17T00:31:34.804Z,0.50
2018-12-17T00:32:10.844Z,0.50
2018-12-17T00:32:47.275Z,0.50
2018-12-17T00:33:23.347Z,0.50
2018-12-17T00:33:59.764Z,0.50
2018-12-17T00:34:35.817Z,0.50
2018-12-17T00:35:12.219Z,0.50
2018-12-17T00:35:48.259Z,0.50
2018-12-17T00:36:24.309Z,0.50
2018-12-17T00:37:00.384Z,0.50
2018-12-17T00:37:36.434Z,0.50
2018-12-17T00:38:12.487Z,0.50
2018-12-17T00:38:48.873Z,0.50
2018-12-17T00:39:24.885Z,0.50
2018-12-17T00:40:01.422Z,0.50
2018-12-17T00:40:37.439Z,0.50
2018-12-17T00:41:13.466Z,0.50
2018-12-17T00:41:49.729Z,0.40
2018-12-17T00:42:25.759Z,0.50
2018-12-17T00:43:01.803Z,0.50
2018-12-17T00:43:38.489Z,0.50
2018-12-17T00:44:14.493Z,0.50
2018-12-17T00:44:50.515Z,0.40
2018-12-17T00:45:26.519Z,0.40
2018-12-17T00:46:02.990Z,0.40
2018-12-17T00:46:38.991Z,0.40
2018-12-17T00:47:15.042Z,0.50
2018-12-17T00:47:51.101Z,0.40
2018-12-17T00:48:27.643Z,0.40
2018-12-17T00:49:03.677Z,0.40
2018-12-17T00:49:39.693Z,0.40
2018-12-17T00:50:15.712Z,0.40
2018-12-17T00:50:51.739Z,0.40
2018-12-17T00:51:28.094Z,0.40
2018-12-17T00:52:05.043Z,0.40
2018-12-17T00:52:41.104Z,0.40
2018-12-17T00:53:17.135Z,0.40
2018-12-17T00:53:53.178Z,0.40
2018-12-17T00:54:29.203Z,0.40
2018-12-17T00:55:06.366Z,0.40
2018-12-17T00:55:42.783Z,0.40
2018-12-17T00:56:20.040Z,0.40
2018-12-17T00:56:56.516Z,0.40
2018-12-17T00:57:33.227Z,0.40
2018-12-17T00:58:14.957Z,0.40
2018-12-17T00:58:47.380Z,0.40
2018-12-17T00:59:23.829Z,0.40
2018-12-17T01:00:00.288Z,0.40
2018-12-17T01:00:36.684Z,0.40
2018-12-17T01:01:13.113Z,0.40
2018-12-17T01:01:49.524Z,0.40
2018-12-17T01:02:25.595Z,0.40
2018-12-17T01:03:02.452Z,0.40
2018-12-17T01:03:38.867Z,0.40
2018-12-17T01:04:14.927Z,0.40
2018-12-17T01:04:51.284Z,0.40
2018-12-17T01:05:27.708Z,0.40
2018-12-17T01:06:04.130Z,0.40
2018-12-17T01:06:40.478Z,0.40
2018-12-17T01:08:04.148Z,0.40
2018-12-17T01:08:40.620Z,0.40
2018-12-17T01:09:16.639Z,0.40
2018-12-17T01:09:52.692Z,0.40
2018-12-17T01:10:28.734Z,0.40
2018-12-17T01:11:05.579Z,0.40
2018-12-17T01:11:42.326Z,0.40
2018-12-17T01:12:18.368Z,0.40
2018-12-17T01:12:54.784Z,0.40
2018-12-17T01:13:30.814Z,0.40
2018-12-17T01:14:06.892Z,0.40
2018-12-17T01:14:43.265Z,0.40
2018-12-17T01:15:19.704Z,0.40
2018-12-17T01:15:58.138Z,0.40
2018-12-17T01:16:34.564Z,0.40
2018-12-17T01:17:10.634Z,0.40
2018-12-17T01:17:46.663Z,0.40
2018-12-17T01:18:22.792Z,0.40
2018-12-17T01:18:58.851Z,0.40
2018-12-17T01:19:35.277Z,0.40
2018-12-17T01:20:11.709Z,0.30
2018-12-17T01:20:48.140Z,0.40
2018-12-17T01:21:24.693Z,0.40
2018-12-17T01:22:00.740Z,0.40
2018-12-17T01:22:37.175Z,0.30
2018-12-17T01:23:13.236Z,0.40
2018-12-17T01:23:49.556Z,0.40
2018-12-17T01:24:25.972Z,0.30
2018-12-17T01:25:02.423Z,0.40
2018-12-17T01:25:38.434Z,0.30
2018-12-17T01:26:14.793Z,0.40
2018-12-17T01:26:50.876Z,0.40
2018-12-17T01:27:27.355Z,0.40
2018-12-17T01:28:03.446Z,0.30
2018-12-17T01:28:39.912Z,0.30
2018-12-17T01:29:15.955Z,0.30
2018-12-17T01:29:53.350Z,0.30
2018-12-17T01:30:29.424Z,0.30
2018-12-17T01:31:05.877Z,0.30
2018-12-17T01:31:41.904Z,0.30
2018-12-17T01:32:17.978Z,0.30
2018-12-17T01:32:54.366Z,0.30
2018-12-17T01:33:30.478Z,0.30
2018-12-17T01:34:06.866Z,0.30
2018-12-17T01:34:42.855Z,0.30
2018-12-17T01:35:19.323Z,0.30
2018-12-17T01:35:55.758Z,0.30
2018-12-17T01:36:32.684Z,0.30
2018-12-17T01:37:08.705Z,0.30
2018-12-17T01:37:44.748Z,0.30
2018-12-17T01:38:20.854Z,0.30
2018-12-17T01:38:56.968Z,0.30
2018-12-17T01:39:33.858Z,0.30
2018-12-17T01:40:10.714Z,0.30
2018-12-17T01:40:46.809Z,0.30
2018-12-17T01:41:23.470Z,0.30
2018-12-17T01:41:59.948Z,0.30
2018-12-17T01:42:36.471Z,0.30
2018-12-17T01:43:12.557Z,0.40
2018-12-17T01:43:49.061Z,0.30
2018-12-17T01:44:25.133Z,0.40
2018-12-17T01:45:01.240Z,0.40
2018-12-17T01:45:38.112Z,0.40
2018-12-17T01:46:14.174Z,0.30
2018-12-17T01:46:50.683Z,0.30
2018-12-17T01:47:27.141Z,0.30
2018-12-17T01:48:04.038Z,0.30
2018-12-17T01:48:40.109Z,0.30
2018-12-17T01:49:16.191Z,0.30
2018-12-17T01:49:53.492Z,0.30
2018-12-17T01:50:29.548Z,0.30
2018-12-17T01:51:05.592Z,0.30
2018-12-17T01:51:41.686Z,0.30
2018-12-17T01:52:17.726Z,0.30
2018-12-17T01:52:53.743Z,0.30
2018-12-17T01:53:29.826Z,0.20
2018-12-17T01:54:06.348Z,0.20
2018-12-17T01:54:43.289Z,0.20
2018-12-17T01:55:19.321Z,0.20
2018-12-17T01:55:55.751Z,0.20
2018-12-17T01:56:31.799Z,0.20
2018-12-17T01:57:08.109Z,0.20
2018-12-17T01:57:44.175Z,0.20
2018-12-17T01:58:20.244Z,0.10
2018-12-17T01:58:56.313Z,0.20
2018-12-17T01:59:32.359Z,0.10
2018-12-17T02:00:09.914Z,0.10
2018-12-17T02:00:45.957Z,0.10
2018-12-17T02:01:22.863Z,0.10
2018-12-17T02:01:59.601Z,0.10
2018-12-17T02:02:36.502Z,0.10
2018-12-17T02:03:12.956Z,0.10
2018-12-17T02:03:48.999Z,0.10
2018-12-17T02:04:25.543Z,0.00
2018-12-17T02:05:01.535Z,0.00
2018-12-17T02:05:37.599Z,0.00
2018-12-17T02:06:13.678Z,0.00
2018-12-17T02:06:49.736Z,0.00
2018-12-17T02:07:25.804Z,0.00
2018-12-17T02:08:01.813Z,0.00
2018-12-17T02:08:38.235Z,-0.10
2018-12-17T02:09:14.416Z,-0.10
2018-12-17T02:09:50.505Z,-0.10
2018-12-17T02:10:27.126Z,-0.10
2018-12-17T02:12:07.754Z,-0.10
2018-12-17T02:12:44.219Z,-0.10
2018-12-17T02:13:20.702Z,-0.20
2018-12-17T02:13:56.768Z,-0.20
2018-12-17T02:14:32.855Z,-0.20
2018-12-17T02:15:09.750Z,-0.20
2018-12-17T02:15:45.825Z,-0.20
2018-12-17T02:16:21.903Z,-0.20
2018-12-17T02:16:58.741Z,-0.30
2018-12-17T02:17:34.913Z,-0.30
2018-12-17T02:18:10.991Z,-0.30
2018-12-17T02:18:47.491Z,-0.30
2018-12-17T02:19:24.076Z,-0.30
2018-12-17T02:20:00.637Z,-0.30
2018-12-17T02:20:36.728Z,-0.30
2018-12-17T02:21:12.825Z,-0.30
2018-12-17T02:21:48.906Z,-0.30
2018-12-17T02:22:24.986Z,-0.30
2018-12-17T02:23:01.837Z,-0.30
2018-12-17T02:23:37.936Z,-0.30
2018-12-17T02:24:14.049Z,-0.30
2018-12-17T02:24:50.122Z,-0.30
2018-12-17T02:25:26.176Z,-0.30
2018-12-17T02:26:02.250Z,-0.30
2018-12-17T02:26:38.312Z,-0.30
2018-12-17T02:27:14.384Z,-0.30
2018-12-17T02:27:50.455Z,-0.30
2018-12-17T02:28:26.959Z,-0.30
2018-12-17T02:29:03.490Z,-0.30
2018-12-17T02:29:39.612Z,-0.30
2018-12-17T02:30:16.109Z,-0.30
2018-12-17T02:30:52.577Z,-0.40
2018-12-17T02:31:29.103Z,-0.40
2018-12-17T02:32:05.500Z,-0.40
2018-12-17T02:32:41.561Z,-0.40
2018-12-17T02:33:18.015Z,-0.40
2018-12-17T02:33:54.176Z,-0.40
2018-12-17T02:34:30.571Z,-0.40
2018-12-17T02:35:07.620Z,-0.40
2018-12-17T02:35:43.847Z,-0.40
2018-12-17T02:36:20.361Z,-0.40
2018-12-17T02:36:56.480Z,-0.40
2018-12-17T02:37:32.559Z,-0.40
2018-12-17T02:38:08.645Z,-0.40
2018-12-17T02:38:44.721Z,-0.40
2018-12-17T02:39:20.987Z,-0.40
2018-12-17T02:39:57.134Z,-0.40
2018-12-17T02:40:33.283Z,-0.40
2018-12-17T02:41:10.195Z,-0.40
2018-12-17T02:41:46.505Z,-0.50
2018-12-17T02:42:22.704Z,-0.50
2018-12-17T02:42:58.778Z,-0.50
2018-12-17T02:43:35.245Z,-0.50
2018-12-17T02:44:12.167Z,-0.50
2018-12-17T02:44:48.767Z,-0.50
2018-12-17T02:45:25.691Z,-0.50
2018-12-17T02:46:02.563Z,-0.50
2018-12-17T02:46:38.686Z,-0.50
2018-12-17T02:47:14.784Z,-0.50
2018-12-17T02:47:50.897Z,-0.50
2018-12-17T02:48:27.759Z,-0.50
2018-12-17T02:49:04.308Z,-0.50
2018-12-17T02:49:40.913Z,-0.50
2018-12-17T02:50:16.999Z,-0.50
2018-12-17T02:50:53.694Z,-0.50
2018-12-17T02:51:30.211Z,-0.50
2018-12-17T02:52:06.590Z,-0.50
2018-12-17T02:52:43.080Z,-0.50
2018-12-17T02:53:19.266Z,-0.60
2018-12-17T02:53:55.412Z,-0.60
2018-12-17T02:54:32.275Z,-0.60
2018-12-17T02:55:09.281Z,-0.60
2018-12-17T02:55:45.393Z,-0.60
2018-12-17T02:56:21.509Z,-0.60
2018-12-17T02:56:57.581Z,-0.60
2018-12-17T02:57:33.659Z,-0.50
2018-12-17T02:58:10.565Z,-0.50
2018-12-17T02:58:47.075Z,-0.50
2018-12-17T02:59:23.202Z,-0.50
2018-12-17T02:59:59.292Z,-0.50
2018-12-17T03:00:35.886Z,-0.50
2018-12-17T03:01:12.443Z,-0.50
2018-12-17T03:01:49.113Z,-0.50
2018-12-17T03:02:25.643Z,-0.50
2018-12-17T03:03:01.750Z,-0.50
2018-12-17T03:03:38.243Z,-0.50
2018-12-17T03:04:14.353Z,-0.50
2018-12-17T03:04:50.471Z,-0.50
2018-12-17T03:05:26.615Z,-0.50
2018-12-17T03:06:03.053Z,-0.50
2018-12-17T03:06:39.561Z,-0.50
2018-12-17T03:07:16.421Z,-0.50
2018-12-17T03:07:52.945Z,-0.50
2018-12-17T03:08:29.420Z,-0.40
2018-12-17T03:09:07.151Z,-0.40
2018-12-17T03:09:43.677Z,-0.40
2018-12-17T03:10:19.774Z,-0.40
2018-12-17T03:10:56.651Z,-0.40
2018-12-17T03:11:32.759Z,-0.40
2018-12-17T03:12:08.831Z,-0.40
2018-12-17T03:12:45.342Z,-0.40
2018-12-17T03:13:21.477Z,-0.40
2018-12-17T03:13:57.543Z,-0.40
2018-12-17T03:14:33.605Z,-0.40
2018-12-17T03:15:10.550Z,-0.40
2018-12-17T03:15:46.999Z,-0.40
2018-12-17T03:16:23.520Z,-0.40
2018-12-17T03:16:59.605Z,-0.40
2018-12-17T03:17:36.102Z,-0.40
2018-12-17T03:18:12.568Z,-0.40
2018-12-17T03:18:48.966Z,-0.40
2018-12-17T03:19:25.052Z,-0.40
2018-12-17T03:20:01.319Z,-0.40
2018-12-17T03:20:37.777Z,-0.40
2018-12-17T03:21:13.847Z,-0.40
2018-12-17T03:21:50.347Z,-0.30
2018-12-17T03:22:26.422Z,-0.30
2018-12-17T03:23:02.505Z,-0.30
2018-12-17T03:23:38.927Z,-0.30
2018-12-17T03:24:15.004Z,-0.30
2018-12-17T03:24:51.138Z,-0.30
2018-12-17T03:25:28.079Z,-0.30
2018-12-17T03:26:04.584Z,-0.30
2018-12-17T03:26:40.661Z,-0.30
2018-12-17T03:27:16.725Z,-0.30
2018-12-17T03:27:52.772Z,-0.30
2018-12-17T03:28:28.858Z,-0.30
2018-12-17T03:29:05.004Z,-0.30
2018-12-17T03:29:42.243Z,-0.30
2018-12-17T03:30:18.731Z,-0.30
2018-12-17T03:30:55.253Z,-0.30
2018-12-17T03:31:32.078Z,-0.20
2018-12-17T03:32:08.255Z,-0.20
2018-12-17T03:32:44.741Z,-0.20
2018-12-17T03:33:20.844Z,-0.20
2018-12-17T03:33:57.150Z,-0.20
2018-12-17T03:34:33.230Z,-0.20
2018-12-17T03:35:09.603Z,-0.20
2018-12-17T03:35:46.582Z,-0.20
2018-12-17T03:36:22.719Z,-0.20
2018-12-17T03:36:58.811Z,-0.20
2018-12-17T03:37:34.992Z,-0.20
2018-12-17T03:38:11.073Z,-0.20
2018-12-17T03:38:47.552Z,-0.20
2018-12-17T03:39:24.614Z,-0.20
2018-12-17T03:40:00.706Z,-0.20
2018-12-17T03:40:37.206Z,-0.20
2018-12-17T03:41:13.801Z,-0.20
2018-12-17T03:41:50.240Z,-0.20
2018-12-17T03:42:26.318Z,-0.20
2018-12-17T03:43:03.292Z,-0.20
2018-12-17T03:43:39.816Z,-0.20
2018-12-17T03:44:15.864Z,-0.20
2018-12-17T03:44:52.004Z,-0.20
2018-12-17T03:45:28.124Z,-0.20
2018-12-17T03:46:05.022Z,-0.20
2018-12-17T03:46:41.214Z,-0.20
2018-12-17T03:47:17.272Z,-0.20
2018-12-17T03:47:53.426Z,-0.20
2018-12-17T03:48:30.534Z,-0.20
2018-12-17T03:49:07.523Z,-0.20
2018-12-17T03:49:43.650Z,-0.20
2018-12-17T03:50:19.699Z,-0.20
2018-12-17T03:50:55.796Z,-0.10
2018-12-17T03:51:31.908Z,-0.20
2018-12-17T03:52:08.002Z,-0.10
2018-12-17T03:52:44.078Z,-0.10
2018-12-17T03:53:20.158Z,-0.10
2018-12-17T03:53:56.303Z,-0.10
2018-12-17T03:54:32.392Z,-0.10
2018-12-17T03:55:09.237Z,-0.10
2018-12-17T03:55:45.692Z,-0.10
2018-12-17T03:56:21.804Z,-0.10
2018-12-17T03:56:58.714Z,-0.10
2018-12-17T03:57:35.222Z,-0.10
2018-12-17T03:58:11.681Z,-0.10
2018-12-17T03:58:47.805Z,-0.10
2018-12-17T03:59:24.278Z,-0.10
2018-12-17T04:00:00.408Z,-0.10
2018-12-17T04:00:36.509Z,-0.10
2018-12-17T04:01:12.877Z,-0.10
2018-12-17T04:01:49.366Z,-0.10
2018-12-17T04:02:25.462Z,-0.10
2018-12-17T04:03:01.920Z,-0.10
2018-12-17T04:03:38.021Z,-0.10
2018-12-17T04:04:14.486Z,-0.20
2018-12-17T04:04:50.905Z,-0.10
2018-12-17T04:05:27.004Z,-0.10
2018-12-17T04:06:03.892Z,-0.10
2018-12-17T04:06:39.988Z,-0.10
2018-12-17T04:07:16.076Z,-0.10
2018-12-17T04:07:52.134Z,-0.10
2018-12-17T04:08:28.646Z,-0.10
2018-12-17T04:09:06.351Z,-0.10
2018-12-17T04:09:42.399Z,-0.10
2018-12-17T04:10:18.488Z,-0.10
2018-12-17T04:10:54.997Z,-0.10
2018-12-17T04:11:31.087Z,-0.10
2018-12-17T04:12:07.565Z,-0.10
2018-12-17T04:12:44.049Z,-0.10
2018-12-17T04:13:20.124Z,-0.10
2018-12-17T04:13:56.173Z,-0.10
2018-12-17T04:14:32.236Z,-0.10
2018-12-17T04:15:09.293Z,-0.10
2018-12-17T04:15:45.340Z,-0.10
2018-12-17T04:16:21.875Z,-0.10
2018-12-17T04:16:58.361Z,-0.10
2018-12-17T04:17:34.435Z,-0.10
2018-12-17T04:18:13.535Z,-0.10
2018-12-17T04:18:49.654Z,-0.10
2018-12-17T04:19:25.859Z,-0.10
2018-12-17T04:20:01.942Z,-0.10
2018-12-17T04:20:38.010Z,-0.10
2018-12-17T04:21:14.500Z,-0.10
2018-12-17T04:21:50.583Z,-0.10
2018-12-17T04:22:26.669Z,-0.10
2018-12-17T04:23:02.727Z,-0.10
2018-12-17T04:23:39.248Z,-0.10
2018-12-17T04:24:15.324Z,-0.10
2018-12-17T04:24:51.404Z,-0.10
2018-12-17T04:25:27.471Z,-0.10
2018-12-17T04:26:03.558Z,-0.10
2018-12-17T04:26:39.648Z,-0.10
2018-12-17T04:27:15.747Z,-0.10
2018-12-17T04:27:51.849Z,-0.10
2018-12-17T04:28:28.020Z,-0.10
2018-12-17T04:29:07.057Z,-0.10
2018-12-17T04:29:43.260Z,-0.10
2018-12-17T04:30:19.360Z,-0.10
2018-12-17T04:30:55.763Z,-0.10
2018-12-17T04:31:31.856Z,-0.10
2018-12-17T04:32:07.955Z,-0.10
2018-12-17T04:32:44.692Z,-0.10
2018-12-17T04:33:20.762Z,-0.10
2018-12-17T04:33:56.895Z,-0.10
2018-12-17T04:34:33.419Z,-0.10
2018-12-17T04:35:09.470Z,-0.10
2018-12-17T04:35:45.546Z,-0.10
2018-12-17T04:36:21.601Z,-0.10
2018-12-17T04:36:58.068Z,-0.10
2018-12-17T04:37:34.363Z,-0.10
2018-12-17T04:38:10.466Z,-0.10
2018-12-17T04:38:46.544Z,-0.10
2018-12-17T04:39:23.094Z,0.00
2018-12-17T04:39:59.574Z,0.00
2018-12-17T04:40:35.652Z,0.00
2018-12-17T04:41:12.129Z,0.00
2018-12-17T04:41:48.213Z,0.00
2018-12-17T04:42:24.325Z,0.00
2018-12-17T04:43:00.425Z,0.00
2018-12-17T04:43:36.526Z,0.00
2018-12-17T04:44:12.604Z,0.00
2018-12-17T04:44:48.668Z,-0.10
2018-12-17T04:45:24.748Z,0.00
2018-12-17T04:46:00.927Z,0.00
2018-12-17T04:46:37.286Z,0.00
2018-12-17T04:47:13.404Z,0.00
2018-12-17T04:47:49.492Z,0.00
2018-12-17T04:48:25.567Z,0.00
2018-12-17T04:49:01.644Z,0.00
2018-12-17T04:49:37.710Z,0.00
2018-12-17T04:50:13.760Z,0.00
2018-12-17T04:50:49.832Z,0.00
2018-12-17T04:51:26.224Z,0.00
2018-12-17T04:52:02.318Z,0.00
2018-12-17T04:52:38.420Z,0.00
2018-12-17T04:53:14.496Z,0.00
2018-12-17T04:53:50.612Z,0.00
2018-12-17T04:54:27.102Z,0.00
2018-12-17T04:55:03.559Z,0.00
2018-12-17T04:55:39.668Z,0.00
2018-12-17T04:56:16.168Z,0.00
2018-12-17T04:56:52.247Z,0.00
2018-12-17T04:57:28.325Z,0.00
2018-12-17T04:58:05.531Z,0.00
2018-12-17T04:58:41.598Z,0.00
2018-12-17T04:59:18.306Z,0.00
2018-12-17T04:59:54.376Z,0.00
2018-12-17T05:00:30.465Z,0.00
2018-12-17T05:01:07.390Z,0.00
2018-12-17T05:01:43.496Z,0.00
2018-12-17T05:02:19.577Z,0.00
2018-12-17T05:02:56.378Z,0.00
2018-12-17T05:03:33.166Z,0.00
2018-12-17T05:04:09.249Z,0.00
2018-12-17T05:04:45.781Z,0.00
2018-12-17T05:05:21.920Z,0.00
2018-12-17T05:05:58.010Z,0.00
2018-12-17T05:06:34.058Z,0.00
2018-12-17T05:07:10.132Z,0.10
2018-12-17T05:07:46.205Z,0.10
2018-12-17T05:08:22.349Z,0.10
2018-12-17T05:08:58.448Z,0.10
2018-12-17T05:09:34.517Z,0.10
2018-12-17T05:10:11.046Z,0.10
2018-12-17T05:10:47.530Z,0.10
2018-12-17T05:11:23.849Z,0.10
2018-12-17T05:11:59.920Z,0.10
2018-12-17T05:12:36.002Z,0.10
2018-12-17T05:13:12.502Z,0.10
2018-12-17T05:13:48.580Z,0.10
2018-12-17T05:14:24.691Z,0.10
2018-12-17T05:15:00.788Z,0.10
2018-12-17T05:15:36.855Z,0.10
2018-12-17T05:16:12.955Z,0.10
2018-12-17T05:16:49.000Z,0.10
2018-12-17T05:17:25.112Z,0.10
2018-12-17T05:18:01.566Z,0.10
2018-12-17T05:18:37.635Z,0.10
2018-12-17T05:19:13.765Z,0.10
2018-12-17T05:19:49.846Z,0.10
2018-12-17T05:20:25.946Z,0.10
2018-12-17T05:21:02.033Z,0.10
2018-12-17T05:21:38.108Z,0.10
2018-12-17T05:22:14.228Z,0.10
2018-12-17T05:22:50.294Z,0.10
2018-12-17T05:23:26.380Z,0.10
2018-12-17T05:24:02.464Z,0.10
2018-12-17T05:24:39.345Z,0.10
2018-12-17T05:25:15.878Z,0.10
2018-12-17T05:25:52.550Z,0.10
2018-12-17T05:26:28.652Z,0.10
2018-12-17T05:27:05.126Z,0.10
2018-12-17T05:27:41.194Z,0.10
2018-12-17T05:28:17.239Z,0.10
2018-12-17T05:28:53.343Z,0.10
2018-12-17T05:29:29.412Z,0.10
2018-12-17T05:30:07.739Z,0.10
2018-12-17T05:30:43.852Z,0.10
2018-12-17T05:31:20.276Z,0.10
2018-12-17T05:31:56.372Z,0.10
2018-12-17T05:32:32.443Z,0.10
2018-12-17T05:33:08.801Z,0.10
2018-12-17T05:33:44.883Z,0.10
2018-12-17T05:34:21.005Z,0.10
2018-12-17T05:34:57.118Z,0.10
2018-12-17T05:35:33.252Z,0.10
2018-12-17T05:36:09.625Z,0.10
2018-12-17T05:36:45.694Z,0.10
2018-12-17T05:37:21.911Z,0.10
2018-12-17T05:37:58.596Z,0.10
2018-12-17T05:38:34.798Z,0.10
2018-12-17T05:39:11.214Z,0.10
2018-12-17T05:39:47.512Z,0.10
2018-12-17T05:40:23.608Z,0.10
2018-12-17T05:40:59.702Z,0.10
2018-12-17T05:41:35.781Z,0.10
2018-12-17T05:42:12.258Z,0.10
2018-12-17T05:42:48.424Z,0.10
2018-12-17T05:43:24.502Z,0.00
2018-12-17T05:44:00.631Z,0.00
2018-12-17T05:44:36.764Z,0.00
2018-12-17T05:45:12.828Z,0.00
2018-12-17T05:45:49.277Z,0.00
2018-12-17T05:46:25.344Z,0.00
2018-12-17T05:47:01.734Z,0.00
2018-12-17T05:47:37.810Z,0.00
2018-12-17T05:48:13.874Z,0.00
2018-12-17T05:48:50.005Z,0.00
2018-12-17T05:49:26.115Z,0.00
2018-12-17T05:50:02.239Z,0.00
2018-12-17T05:50:38.658Z,0.00
2018-12-17T05:51:15.162Z,0.00
2018-12-17T05:51:52.010Z,0.00
2018-12-17T05:52:28.453Z,0.00
2018-12-17T05:53:04.906Z,0.00
2018-12-17T05:53:40.957Z,0.00
2018-12-17T05:54:17.384Z,0.00
2018-12-17T05:54:53.454Z,0.00
2018-12-17T05:55:29.556Z,0.00
2018-12-17T05:56:06.032Z,0.00
2018-12-17T05:56:42.926Z,0.00
2018-12-17T05:57:18.962Z,0.00
2018-12-17T05:57:55.021Z,0.10
2018-12-17T05:58:31.500Z,0.10
2018-12-17T05:59:07.562Z,0.00
2018-12-17T05:59:43.660Z,0.10
2018-12-17T06:00:19.742Z,0.00
2018-12-17T06:00:55.846Z,0.10
2018-12-17T06:01:31.902Z,0.00
2018-12-17T06:02:07.987Z,0.00
2018-12-17T06:02:44.476Z,0.10
2018-12-17T06:03:20.545Z,0.00
2018-12-17T06:03:56.692Z,0.00
2018-12-17T06:04:33.186Z,0.00
2018-12-17T06:05:10.212Z,0.00
2018-12-17T06:05:46.317Z,0.00
2018-12-17T06:06:22.856Z,0.00
2018-12-17T06:06:59.348Z,0.00
2018-12-17T06:07:35.416Z,0.00
2018-12-17T06:08:12.942Z,0.00
2018-12-17T06:08:49.504Z,0.00
2018-12-17T06:09:25.952Z,0.00
2018-12-17T06:10:02.474Z,0.10
2018-12-17T06:10:39.002Z,0.00
2018-12-17T06:11:15.474Z,0.00
2018-12-17T06:11:51.853Z,0.00
2018-12-17T06:12:28.359Z,0.00
2018-12-17T06:13:05.252Z,0.00
2018-12-17T06:13:41.308Z,0.00
2018-12-17T06:14:17.440Z,0.10
2018-12-17T06:14:53.916Z,0.00
2018-12-17T06:15:30.321Z,0.00
2018-12-17T06:16:06.437Z,0.00
2018-12-17T06:16:42.518Z,0.00
2018-12-17T06:17:18.686Z,0.10
2018-12-17T06:17:54.730Z,0.10
2018-12-17T06:18:30.800Z,0.10
2018-12-17T06:19:07.268Z,0.10
2018-12-17T06:19:43.378Z,0.10
2018-12-17T06:20:19.431Z,0.10
2018-12-17T06:20:55.810Z,0.10
2018-12-17T06:21:32.354Z,0.10
2018-12-17T06:22:08.486Z,0.10
2018-12-17T06:22:44.993Z,0.10
2018-12-17T06:23:21.144Z,0.10
2018-12-17T06:23:57.250Z,0.10
2018-12-17T06:24:33.377Z,0.10
2018-12-17T06:25:09.493Z,0.10
2018-12-17T06:25:45.610Z,0.10
2018-12-17T06:26:21.720Z,0.10
2018-12-17T06:26:57.772Z,0.10
2018-12-17T06:27:37.055Z,0.10
2018-12-17T06:28:12.329Z,0.10
2018-12-17T06:28:48.366Z,0.10
2018-12-17T06:29:24.456Z,0.10
2018-12-17T06:30:00.545Z,0.10
2018-12-17T06:30:36.632Z,0.10
2018-12-17T06:31:12.687Z,0.10
2018-12-17T06:31:49.190Z,0.10
2018-12-17T06:32:25.236Z,0.10
2018-12-17T06:33:01.659Z,0.10
2018-12-17T06:33:37.737Z,0.10
2018-12-17T06:34:13.747Z,0.10
2018-12-17T06:34:50.187Z,0.10
2018-12-17T06:35:26.639Z,0.10
2018-12-17T06:36:02.659Z,0.10
2018-12-17T06:36:39.026Z,0.10
2018-12-17T06:37:15.057Z,0.10
2018-12-17T06:37:51.536Z,0.10
2018-12-17T06:38:27.877Z,0.10
2018-12-17T06:39:07.295Z,0.10
2018-12-17T06:39:43.313Z,0.10
2018-12-17T06:40:19.837Z,0.10
2018-12-17T06:40:55.865Z,0.10
2018-12-17T06:41:31.883Z,0.10
2018-12-17T06:42:08.315Z,0.10
2018-12-17T06:42:44.338Z,0.10
2018-12-17T06:43:20.774Z,0.10
2018-12-17T06:43:56.778Z,0.10
2018-12-17T06:44:32.822Z,0.10
2018-12-17T06:45:09.607Z,0.10
2018-12-17T06:45:45.709Z,0.10
2018-12-17T06:46:21.839Z,0.10
2018-12-17T06:46:58.292Z,0.10
2018-12-17T06:47:34.339Z,0.10
2018-12-17T06:48:16.840Z,0.10
2018-12-17T06:48:48.798Z,0.10
2018-12-17T06:49:31.659Z,0.10
2018-12-17T06:50:08.261Z,0.10
2018-12-17T06:50:44.723Z,0.10
2018-12-17T06:51:23.176Z,0.10
2018-12-17T06:51:59.522Z,0.10
2018-12-17T06:52:35.680Z,0.10
2018-12-17T06:53:11.765Z,0.10
2018-12-17T06:53:48.237Z,0.10
2018-12-17T06:54:24.981Z,0.10
2018-12-17T06:55:01.124Z,0.10
2018-12-17T06:55:37.180Z,0.10
2018-12-17T06:56:13.217Z,0.10
2018-12-17T06:56:49.323Z,0.10
2018-12-17T06:57:25.379Z,0.20
2018-12-17T06:58:01.870Z,0.10
2018-12-17T06:58:38.183Z,0.10
2018-12-17T06:59:14.215Z,0.10
2018-12-17T06:59:50.257Z,0.20
2018-12-17T07:00:26.985Z,0.20
2018-12-17T07:01:03.471Z,0.20
2018-12-17T07:01:39.530Z,0.10
2018-12-17T07:02:15.914Z,0.20
2018-12-17T07:02:51.966Z,0.20
2018-12-17T07:03:27.992Z,0.20
2018-12-17T07:04:04.777Z,0.20
2018-12-17T07:04:40.835Z,0.20
2018-12-17T07:05:16.889Z,0.20
2018-12-17T07:05:53.055Z,0.20
2018-12-17T07:06:29.561Z,0.20
2018-12-17T07:07:06.427Z,0.20
2018-12-17T07:07:42.823Z,0.20
2018-12-17T07:08:19.618Z,0.20
2018-12-17T07:08:55.797Z,0.20
2018-12-17T07:09:31.839Z,0.20
2018-12-17T07:10:08.718Z,0.20
2018-12-17T07:10:44.800Z,0.20
2018-12-17T07:11:20.859Z,0.20
2018-12-17T07:11:56.921Z,0.20
2018-12-17T07:12:32.987Z,0.20
2018-12-17T07:13:09.441Z,0.20
2018-12-17T07:13:45.487Z,0.20
2018-12-17T07:14:21.531Z,0.20
2018-12-17T07:14:58.201Z,0.20
2018-12-17T07:15:34.748Z,0.20
2018-12-17T07:16:10.777Z,0.20
2018-12-17T07:16:47.017Z,0.20
2018-12-17T07:17:23.087Z,0.20
2018-12-17T07:17:59.133Z,0.20
2018-12-17T07:18:35.603Z,0.20
2018-12-17T07:19:11.654Z,0.20
2018-12-17T07:19:47.731Z,0.20
2018-12-17T07:20:23.791Z,0.20
2018-12-17T07:20:59.835Z,0.20
2018-12-17T07:21:35.889Z,0.20
2018-12-17T07:22:11.957Z,0.20
2018-12-17T07:22:48.073Z,0.20
2018-12-17T07:23:24.897Z,0.20
2018-12-17T07:24:00.959Z,0.20
2018-12-17T07:24:37.032Z,0.20
2018-12-17T07:25:13.441Z,0.20
2018-12-17T07:25:49.479Z,0.20
2018-12-17T07:26:25.519Z,0.30
2018-12-17T07:27:01.617Z,0.20
2018-12-17T07:27:37.639Z,0.30
2018-12-17T07:28:13.664Z,0.30
2018-12-17T07:28:49.715Z,0.30
2018-12-17T07:29:25.742Z,0.30
2018-12-17T07:30:01.791Z,0.30
2018-12-17T07:30:37.887Z,0.30
2018-12-17T07:31:13.970Z,0.30
2018-12-17T07:31:50.413Z,0.30
2018-12-17T07:32:26.865Z,0.30
2018-12-17T07:33:02.922Z,0.30
2018-12-17T07:33:38.975Z,0.30
2018-12-17T07:34:15.056Z,0.30
2018-12-17T07:34:51.799Z,0.30
2018-12-17T07:35:28.251Z,0.30
2018-12-17T07:36:05.159Z,0.30
2018-12-17T07:36:41.203Z,0.30
2018-12-17T07:37:17.619Z,0.30
2018-12-17T07:37:54.177Z,0.30
2018-12-17T07:38:31.105Z,0.30
2018-12-17T07:39:08.977Z,0.40
2018-12-17T07:39:46.193Z,0.40
2018-12-17T07:40:23.037Z,0.40
2018-12-17T07:40:59.419Z,0.40
2018-12-17T07:41:35.663Z,0.40
2018-12-17T07:42:11.681Z,0.40
2018-12-17T07:42:47.725Z,0.40
2018-12-17T07:43:23.747Z,0.40
2018-12-17T07:44:00.499Z,0.40
2018-12-17T07:44:36.956Z,0.50
2018-12-17T07:45:12.999Z,0.40
2018-12-17T07:45:49.051Z,0.50
2018-12-17T07:46:25.091Z,0.50
2018-12-17T07:47:01.683Z,0.50
2018-12-17T07:47:38.799Z,0.50
2018-12-17T07:48:15.244Z,0.50
2018-12-17T07:48:51.278Z,0.50
2018-12-17T07:49:27.316Z,0.50
2018-12-17T07:50:03.957Z,0.50
2018-12-17T07:50:40.586Z,0.50
2018-12-17T07:51:17.091Z,0.50
2018-12-17T07:51:53.220Z,0.50
2018-12-17T07:52:29.231Z,0.50
2018-12-17T07:53:05.251Z,0.60
2018-12-17T07:53:41.358Z,0.60
2018-12-17T07:54:17.399Z,0.60
2018-12-17T07:54:53.461Z,0.60
2018-12-17T07:55:29.764Z,0.60
2018-12-17T07:56:06.377Z,0.60
2018-12-17T07:56:42.549Z,0.60
2018-12-17T07:57:18.601Z,0.60
2018-12-17T07:57:54.675Z,0.60
2018-12-17T07:58:31.145Z,0.60
2018-12-17T07:59:07.198Z,0.60
2018-12-17T07:59:43.568Z,0.60
2018-12-17T08:00:19.613Z,0.60